createdAt,value
2018-08-20T00:01:47.662Z,100613.00
2018-08-20T00:04:25.138Z,100629.00
2018-08-20T00:06:59.297Z,100613.00
2018-08-20T00:09:38.506Z,100614.00
2018-08-20T00:12:12.034Z,100619.00
2018-08-20T00:14:42.230Z,100614.00
2018-08-20T00:17:13.362Z,100622.00
2018-08-20T00:19:43.665Z,100623.00
2018-08-20T00:22:15.175Z,100619.00
2018-08-20T00:24:50.206Z,100621.00
2018-08-20T00:27:21.789Z,100609.00
2018-08-20T00:29:52.187Z,100603.00
2018-08-20T00:32:24.990Z,100612.00
2018-08-20T00:34:55.542Z,100609.00
2018-08-20T00:37:26.050Z,100611.00
2018-08-20T00:39:56.799Z,100614.00
2018-08-20T00:42:27.885Z,100610.00
2018-08-20T00:44:58.128Z,100603.00
2018-08-20T00:47:29.857Z,100602.00
2018-08-20T00:50:00.212Z,100597.00
2018-08-20T00:52:32.249Z,100604.00
2018-08-20T00:55:03.761Z,100594.00
2018-08-20T00:57:35.046Z,100596.00
2018-08-20T01:00:05.450Z,100601.00
2018-08-20T01:02:35.651Z,100606.00
2018-08-20T01:05:07.737Z,100600.00
2018-08-20T01:07:39.266Z,100599.00
2018-08-20T01:10:09.810Z,100608.00
2018-08-20T01:12:40.225Z,100602.00
2018-08-20T01:15:14.643Z,100602.00
2018-08-20T01:17:48.805Z,100607.00
2018-08-20T01:20:19.226Z,100602.00
2018-08-20T01:22:50.943Z,100601.00
2018-08-20T01:25:23.563Z,100599.00
2018-08-20T01:27:54.964Z,100599.00
2018-08-20T01:30:25.580Z,100612.00
2018-08-20T01:33:16.259Z,100613.00
2018-08-20T01:35:46.505Z,100617.00
2018-08-20T01:38:16.953Z,100610.00
2018-08-20T01:40:47.485Z,100610.00
2018-08-20T01:43:17.729Z,100606.00
2018-08-20T01:45:47.962Z,100611.00
2018-08-20T01:48:18.025Z,100605.00
2018-08-20T01:50:49.169Z,100598.00
2018-08-20T01:53:19.837Z,100605.00
2018-08-20T01:55:49.924Z,100603.00
2018-08-20T01:58:22.211Z,100604.00
2018-08-20T02:00:52.395Z,100605.00
2018-08-20T02:03:23.683Z,100603.00
2018-08-20T02:05:54.173Z,100598.00
2018-08-20T02:08:24.198Z,100599.00
2018-08-20T02:10:55.088Z,100598.00
2018-08-20T02:13:26.334Z,100596.00
2018-08-20T02:15:56.332Z,100602.00
2018-08-20T02:18:26.225Z,100596.00
2018-08-20T02:20:56.426Z,100599.00
2018-08-20T02:23:27.654Z,100597.00
2018-08-20T02:25:58.658Z,100611.00
2018-08-20T02:28:28.732Z,100606.00
2018-08-20T02:31:00.245Z,100599.00
2018-08-20T02:33:30.304Z,100592.00
2018-08-20T02:36:00.410Z,100594.00
2018-08-20T02:38:31.563Z,100589.00
2018-08-20T02:41:01.884Z,100589.00
2018-08-20T02:43:33.765Z,100590.00
2018-08-20T02:46:04.679Z,100575.00
2018-08-20T02:48:36.487Z,100583.00
2018-08-20T02:51:07.127Z,100593.00
2018-08-20T02:53:37.163Z,100587.00
2018-08-20T02:56:08.308Z,100578.00
2018-08-20T02:58:45.263Z,100578.00
2018-08-20T03:01:17.865Z,100591.00
2018-08-20T03:03:48.224Z,100577.00
2018-08-20T03:06:19.434Z,100568.00
2018-08-20T03:08:51.357Z,100563.00
2018-08-20T03:11:23.158Z,100577.00
2018-08-20T03:13:53.878Z,100581.00
2018-08-20T03:16:24.802Z,100582.00
2018-08-20T03:18:55.692Z,100591.00
2018-08-20T03:21:26.828Z,100588.00
2018-08-20T03:23:57.534Z,100583.00
2018-08-20T03:26:28.612Z,100589.00
2018-08-20T03:28:59.970Z,100589.00
2018-08-20T03:31:30.620Z,100589.00
2018-08-20T03:34:03.263Z,100582.00
2018-08-20T03:36:37.066Z,100577.00
2018-08-20T03:39:09.317Z,100574.00
2018-08-20T03:41:39.518Z,100577.00
2018-08-20T03:44:09.694Z,100586.00
2018-08-20T03:46:40.230Z,100583.00
2018-08-20T03:49:10.189Z,100588.00
2018-08-20T03:51:41.186Z,100578.00
2018-08-20T03:54:11.383Z,100576.00
2018-08-20T03:56:41.574Z,100574.00
2018-08-20T03:59:25.452Z,100576.00
2018-08-20T04:01:55.816Z,100577.00
2018-08-20T04:04:26.588Z,100574.00
2018-08-20T04:06:57.783Z,100587.00
2018-08-20T04:09:29.157Z,100588.00
2018-08-20T04:11:59.915Z,100588.00
2018-08-20T04:14:36.644Z,100581.00
2018-08-20T04:17:06.980Z,100571.00
2018-08-20T04:19:38.544Z,100568.00
2018-08-20T04:22:09.827Z,100569.00
2018-08-20T04:24:40.117Z,100565.00
2018-08-20T04:27:10.493Z,100564.00
2018-08-20T04:29:41.808Z,100565.00
2018-08-20T04:32:12.029Z,100567.00
2018-08-20T04:34:42.070Z,100568.00
2018-08-20T04:37:18.797Z,100567.00
2018-08-20T04:39:49.347Z,100567.00
2018-08-20T04:42:19.359Z,100569.00
2018-08-20T04:44:49.873Z,100567.00
2018-08-20T04:47:22.043Z,100578.00
2018-08-20T04:49:52.233Z,100578.00
2018-08-20T04:52:22.691Z,100567.00
2018-08-20T04:54:54.698Z,100570.00
2018-08-20T04:57:25.115Z,100562.00
2018-08-20T04:59:55.286Z,100562.00
2018-08-20T05:02:25.346Z,100572.00
2018-08-20T05:04:57.048Z,100568.00
2018-08-20T05:07:27.870Z,100560.00
2018-08-20T05:09:58.427Z,100561.00
2018-08-20T05:12:29.525Z,100562.00
2018-08-20T05:15:00.939Z,100564.00
2018-08-20T05:17:31.906Z,100560.00
2018-08-20T05:20:04.079Z,100575.00
2018-08-20T05:22:34.164Z,100560.00
2018-08-20T05:25:04.936Z,100575.00
2018-08-20T05:27:35.337Z,100576.00
2018-08-20T05:30:07.549Z,100573.00
2018-08-20T05:32:38.458Z,100581.00
2018-08-20T05:35:17.560Z,100589.00
2018-08-20T05:37:48.132Z,100592.00
2018-08-20T05:40:18.883Z,100590.00
2018-08-20T05:42:48.946Z,100598.00
2018-08-20T05:45:19.424Z,100598.00
2018-08-20T05:47:49.665Z,100599.00
2018-08-20T05:50:19.972Z,100593.00
2018-08-20T05:52:50.327Z,100596.00
2018-08-20T05:55:21.972Z,100603.00
2018-08-20T05:57:52.021Z,100597.00
2018-08-20T06:00:22.890Z,100596.00
2018-08-20T06:02:53.154Z,100601.00
2018-08-20T06:05:23.477Z,100601.00
2018-08-20T06:07:53.775Z,100600.00
2018-08-20T06:10:24.233Z,100610.00
2018-08-20T06:12:54.378Z,100611.00
2018-08-20T06:15:25.659Z,100606.00
2018-08-20T06:17:55.878Z,100604.00
2018-08-20T06:20:27.881Z,100604.00
2018-08-20T06:22:58.506Z,100595.00
2018-08-20T06:25:28.528Z,100603.00
2018-08-20T06:27:58.715Z,100603.00
2018-08-20T06:30:30.656Z,100606.00
2018-08-20T06:33:01.819Z,100589.00
2018-08-20T06:35:32.094Z,100598.00
2018-08-20T06:38:02.285Z,100596.00
2018-08-20T06:40:32.403Z,100603.00
2018-08-20T06:43:03.120Z,100606.00
2018-08-20T06:45:33.457Z,100606.00
2018-08-20T06:48:03.844Z,100610.00
2018-08-20T06:50:34.789Z,100611.00
2018-08-20T06:53:05.521Z,100605.00
2018-08-20T06:55:36.354Z,100603.00
2018-08-20T06:58:06.660Z,100611.00
2018-08-20T07:00:37.322Z,100607.00
2018-08-20T07:03:07.656Z,100612.00
2018-08-20T07:05:37.926Z,100626.00
2018-08-20T07:08:08.210Z,100623.00
2018-08-20T07:10:52.820Z,100621.00
2018-08-20T07:13:33.153Z,100622.00
2018-08-20T07:16:05.492Z,100625.00
2018-08-20T07:18:37.100Z,100624.00
2018-08-20T07:21:09.058Z,100622.00
2018-08-20T07:23:46.431Z,100628.00
2018-08-20T07:26:16.550Z,100632.00
2018-08-20T07:28:47.259Z,100636.00
2018-08-20T07:31:17.624Z,100628.00
2018-08-20T07:33:48.061Z,100636.00
2018-08-20T07:36:18.082Z,100635.00
2018-08-20T07:38:48.978Z,100647.00
2018-08-20T07:41:19.533Z,100638.00
2018-08-20T07:43:49.823Z,100642.00
2018-08-20T07:46:19.990Z,100644.00
2018-08-20T07:48:50.443Z,100650.00
2018-08-20T07:51:20.586Z,100644.00
2018-08-20T07:53:51.097Z,100653.00
2018-08-20T07:56:21.336Z,100644.00
2018-08-20T07:58:52.026Z,100650.00
2018-08-20T08:01:22.819Z,100655.00
2018-08-20T08:03:53.869Z,100655.00
2018-08-20T08:06:23.892Z,100652.00
2018-08-20T08:08:54.627Z,100659.00
2018-08-20T08:11:25.438Z,100653.00
2018-08-20T08:13:57.178Z,100655.00
2018-08-20T08:16:27.143Z,100648.00
2018-08-20T08:18:58.230Z,100649.00
2018-08-20T08:21:28.403Z,100655.00
2018-08-20T08:23:59.321Z,100650.00
2018-08-20T08:26:32.279Z,100653.00
2018-08-20T08:29:04.515Z,100664.00
2018-08-20T08:31:35.312Z,100653.00
2018-08-20T08:34:08.113Z,100654.00
2018-08-20T08:36:38.694Z,100659.00
2018-08-20T08:39:11.836Z,100662.00
2018-08-20T08:41:43.820Z,100659.00
2018-08-20T08:44:15.458Z,100662.00
2018-08-20T08:46:45.571Z,100661.00
2018-08-20T08:49:16.063Z,100663.00
2018-08-20T08:51:46.286Z,100665.00
2018-08-20T08:54:17.227Z,100658.00
2018-08-20T08:56:48.299Z,100663.00
2018-08-20T08:59:19.038Z,100663.00
2018-08-20T09:01:49.213Z,100673.00
2018-08-20T09:04:19.356Z,100674.00
2018-08-20T09:06:49.523Z,100678.00
2018-08-20T09:09:19.634Z,100677.00
2018-08-20T09:11:50.745Z,100679.00
2018-08-20T09:14:21.494Z,100678.00
2018-08-20T09:16:52.259Z,100684.00
2018-08-20T09:19:22.434Z,100674.00
2018-08-20T09:21:53.426Z,100670.00
2018-08-20T09:24:26.434Z,100676.00
2018-08-20T09:26:59.946Z,100671.00
2018-08-20T09:29:31.650Z,100667.00
2018-08-20T09:32:02.733Z,100674.00
2018-08-20T09:34:33.172Z,100677.00
2018-08-20T09:37:04.031Z,100675.00
2018-08-20T09:39:34.188Z,100668.00
2018-08-20T09:42:06.484Z,100667.00
2018-08-20T09:44:39.050Z,100669.00
2018-08-20T09:47:09.026Z,100661.00
2018-08-20T09:49:39.284Z,100660.00
2018-08-20T09:52:09.912Z,100642.00
2018-08-20T09:54:40.914Z,100648.00
2018-08-20T09:57:11.248Z,100655.00
2018-08-20T09:59:41.465Z,100645.00
2018-08-20T10:02:12.492Z,100653.00
2018-08-20T10:04:42.854Z,100653.00
2018-08-20T10:07:13.520Z,100643.00
2018-08-20T10:09:45.219Z,100652.00
2018-08-20T10:12:15.536Z,100651.00
2018-08-20T10:14:45.654Z,100649.00
2018-08-20T10:17:16.941Z,100648.00
2018-08-20T10:19:47.662Z,100647.00
2018-08-20T10:22:18.296Z,100645.00
2018-08-20T10:24:49.186Z,100640.00
2018-08-20T10:27:19.303Z,100647.00
2018-08-20T10:29:49.635Z,100647.00
2018-08-20T10:32:20.007Z,100639.00
2018-08-20T10:34:50.503Z,100640.00
2018-08-20T10:37:21.256Z,100636.00
2018-08-20T10:39:51.228Z,100633.00
2018-08-20T10:42:21.278Z,100644.00
2018-08-20T10:44:55.778Z,100634.00
2018-08-20T10:47:27.558Z,100632.00
2018-08-20T10:49:58.298Z,100631.00
2018-08-20T10:52:28.586Z,100631.00
2018-08-20T10:54:58.871Z,100638.00
2018-08-20T10:57:29.450Z,100627.00
2018-08-20T11:00:00.558Z,100621.00
2018-08-20T11:02:30.903Z,100619.00
2018-08-20T11:05:01.552Z,100612.00
2018-08-20T11:07:33.173Z,100617.00
2018-08-20T11:10:04.412Z,100609.00
2018-08-20T11:12:34.690Z,100607.00
2018-08-20T11:15:05.489Z,100612.00
2018-08-20T11:17:36.321Z,100611.00
2018-08-20T11:20:10.116Z,100611.00
2018-08-20T11:22:42.774Z,100618.00
2018-08-20T11:25:13.717Z,100614.00
2018-08-20T11:27:44.663Z,100616.00
2018-08-20T11:30:15.649Z,100618.00
2018-08-20T11:32:45.715Z,100616.00
2018-08-20T11:35:16.115Z,100617.00
2018-08-20T11:37:46.185Z,100615.00
2018-08-20T11:40:19.241Z,100620.00
2018-08-20T11:42:49.225Z,100614.00
2018-08-20T11:45:19.554Z,100607.00
2018-08-20T11:47:49.761Z,100602.00
2018-08-20T11:50:20.324Z,100614.00
2018-08-20T11:52:51.665Z,100616.00
2018-08-20T11:55:22.140Z,100612.00
2018-08-20T11:57:53.319Z,100608.00
2018-08-20T12:00:23.259Z,100604.00
2018-08-20T12:02:53.799Z,100605.00
2018-08-20T12:05:24.086Z,100604.00
2018-08-20T12:07:56.288Z,100595.00
2018-08-20T12:10:27.256Z,100599.00
2018-08-20T12:12:58.102Z,100603.00
2018-08-20T12:15:28.505Z,100597.00
2018-08-20T12:17:59.526Z,100589.00
2018-08-20T12:20:29.624Z,100597.00
2018-08-20T12:22:59.662Z,100598.00
2018-08-20T12:25:29.984Z,100595.00
2018-08-20T12:28:00.205Z,100603.00
2018-08-20T12:30:31.064Z,100597.00
2018-08-20T12:33:01.956Z,100595.00
2018-08-20T12:35:32.434Z,100603.00
2018-08-20T12:38:02.835Z,100602.00
2018-08-20T12:40:33.511Z,100602.00
2018-08-20T12:43:04.355Z,100597.00
2018-08-20T12:45:34.296Z,100590.00
2018-08-20T12:48:05.411Z,100599.00
2018-08-20T12:50:37.460Z,100587.00
2018-08-20T12:53:07.849Z,100595.00
2018-08-20T12:55:38.942Z,100588.00
2018-08-20T12:58:12.162Z,100591.00
2018-08-20T13:00:42.834Z,100590.00
2018-08-20T13:03:16.067Z,100576.00
2018-08-20T13:05:49.760Z,100580.00
2018-08-20T13:08:19.839Z,100598.00
2018-08-20T13:10:50.161Z,100591.00
2018-08-20T13:13:20.950Z,100592.00
2018-08-20T13:15:51.762Z,100592.00
2018-08-20T13:18:21.749Z,100595.00
2018-08-20T13:20:52.000Z,100588.00
2018-08-20T13:23:22.265Z,100593.00
2018-08-20T13:25:53.267Z,100575.00
2018-08-20T13:28:23.706Z,100578.00
2018-08-20T13:30:53.798Z,100580.00
2018-08-20T13:33:23.980Z,100576.00
2018-08-20T13:35:54.702Z,100579.00
2018-08-20T13:38:26.013Z,100583.00
2018-08-20T13:40:57.108Z,100579.00
2018-08-20T13:43:27.870Z,100579.00
2018-08-20T13:45:57.997Z,100566.00
2018-08-20T13:48:28.258Z,100574.00
2018-08-20T13:50:58.415Z,100575.00
2018-08-20T13:53:29.523Z,100571.00
2018-08-20T13:55:59.724Z,100571.00
2018-08-20T13:58:30.615Z,100568.00
2018-08-20T14:01:00.811Z,100567.00
2018-08-20T14:03:31.312Z,100571.00
2018-08-20T14:06:02.223Z,100568.00
2018-08-20T14:08:32.327Z,100564.00
2018-08-20T14:11:02.760Z,100567.00
2018-08-20T14:13:32.654Z,100570.00
2018-08-20T14:16:02.909Z,100574.00
2018-08-20T14:18:33.514Z,100572.00
2018-08-20T14:21:09.385Z,100575.00
2018-08-20T14:23:44.088Z,100583.00
2018-08-20T14:26:14.780Z,100581.00
2018-08-20T14:28:45.070Z,100579.00
2018-08-20T14:31:15.442Z,100566.00
2018-08-20T14:33:46.084Z,100575.00
2018-08-20T14:36:17.263Z,100571.00
2018-08-20T14:38:47.272Z,100576.00
2018-08-20T14:41:17.718Z,100561.00
2018-08-20T14:43:47.758Z,100557.00
2018-08-20T14:46:21.869Z,100563.00
2018-08-20T14:48:53.639Z,100571.00
2018-08-20T14:51:26.606Z,100567.00
2018-08-20T14:53:57.543Z,100578.00
2018-08-20T14:56:27.628Z,100575.00
2018-08-20T14:58:57.521Z,100569.00
2018-08-20T15:01:28.639Z,100571.00
2018-08-20T15:03:58.732Z,100567.00
2018-08-20T15:06:28.860Z,100566.00
2018-08-20T15:08:59.061Z,100567.00
2018-08-20T15:11:29.435Z,100556.00
2018-08-20T15:13:59.552Z,100551.00
2018-08-20T15:16:30.914Z,100554.00
2018-08-20T15:19:01.860Z,100550.00
2018-08-20T15:21:32.315Z,100555.00
2018-08-20T15:24:03.527Z,100558.00
2018-08-20T15:26:33.838Z,100540.00
2018-08-20T15:29:04.137Z,100548.00
2018-08-20T15:31:34.909Z,100551.00
2018-08-20T15:34:05.843Z,100545.00
2018-08-20T15:36:36.033Z,100552.00
2018-08-20T15:39:08.763Z,100553.00
2018-08-20T15:41:39.044Z,100548.00
2018-08-20T15:44:11.102Z,100545.00
2018-08-20T15:46:41.748Z,100545.00
2018-08-20T15:49:12.786Z,100545.00
2018-08-20T15:51:43.411Z,100543.00
2018-08-20T15:54:13.474Z,100541.00
2018-08-20T15:56:44.689Z,100544.00
2018-08-20T15:59:16.556Z,100538.00
2018-08-20T16:01:46.777Z,100542.00
2018-08-20T16:04:17.999Z,100548.00
2018-08-20T16:06:48.261Z,100560.00
2018-08-20T16:09:19.264Z,100550.00
2018-08-20T16:11:49.498Z,100548.00
2018-08-20T16:14:19.812Z,100543.00
2018-08-20T16:16:50.923Z,100551.00
2018-08-20T16:19:21.897Z,100548.00
2018-08-20T16:21:53.736Z,100545.00
2018-08-20T16:24:29.160Z,100546.00
2018-08-20T16:27:02.793Z,100543.00
2018-08-20T16:29:34.118Z,100541.00
2018-08-20T16:32:04.676Z,100543.00
2018-08-20T16:34:38.791Z,100540.00
2018-08-20T16:37:09.622Z,100544.00
2018-08-20T16:39:39.899Z,100539.00
2018-08-20T16:42:09.918Z,100544.00
2018-08-20T16:44:40.419Z,100541.00
2018-08-20T16:47:10.690Z,100538.00
2018-08-20T16:49:40.948Z,100532.00
2018-08-20T16:52:11.778Z,100532.00
2018-08-20T16:54:41.859Z,100540.00
2018-08-20T16:57:12.536Z,100538.00
2018-08-20T16:59:42.876Z,100536.00
2018-08-20T17:02:20.174Z,100536.00
2018-08-20T17:04:50.696Z,100536.00
2018-08-20T17:07:20.724Z,100540.00
2018-08-20T17:09:50.994Z,100539.00
2018-08-20T17:12:22.270Z,100544.00
2018-08-20T17:14:53.348Z,100533.00
2018-08-20T17:17:25.033Z,100532.00
2018-08-20T17:19:55.136Z,100535.00
2018-08-20T17:22:25.309Z,100533.00
2018-08-20T17:24:57.344Z,100527.00
2018-08-20T17:27:28.692Z,100529.00
2018-08-20T17:29:59.808Z,100529.00
2018-08-20T17:32:31.513Z,100521.00
2018-08-20T17:35:12.238Z,100516.00
2018-08-20T17:37:43.095Z,100512.00
2018-08-20T17:40:13.486Z,100514.00
2018-08-20T17:42:45.525Z,100508.00
2018-08-20T17:45:15.954Z,100510.00
2018-08-20T17:47:46.367Z,100510.00
2018-08-20T17:50:38.604Z,100515.00
2018-08-20T17:53:10.270Z,100519.00
2018-08-20T17:55:41.375Z,100518.00
2018-08-20T17:58:13.833Z,100515.00
2018-08-20T18:00:50.799Z,100516.00
2018-08-20T18:03:26.088Z,100516.00
2018-08-20T18:06:02.056Z,100513.00
2018-08-20T18:08:34.241Z,100521.00
2018-08-20T18:11:05.179Z,100510.00
2018-08-20T18:13:47.444Z,100519.00
2018-08-20T18:16:18.975Z,100516.00
2018-08-20T18:18:53.136Z,100521.00
2018-08-20T18:21:23.506Z,100520.00
2018-08-20T18:23:53.783Z,100525.00
2018-08-20T18:26:30.381Z,100517.00
2018-08-20T18:29:01.626Z,100512.00
2018-08-20T18:31:31.747Z,100518.00
2018-08-20T18:34:01.755Z,100508.00
2018-08-20T18:36:32.004Z,100520.00
2018-08-20T18:39:12.696Z,100513.00
2018-08-20T18:42:19.499Z,100510.00
2018-08-20T18:44:51.037Z,100512.00
2018-08-20T18:47:22.332Z,100522.00
2018-08-20T18:49:58.086Z,100509.00
2018-08-20T18:52:32.214Z,100521.00
2018-08-20T18:55:02.996Z,100519.00
2018-08-20T18:57:35.798Z,100518.00
2018-08-20T19:00:15.261Z,100515.00
2018-08-20T19:02:50.988Z,100521.00
2018-08-20T19:05:22.401Z,100527.00
2018-08-20T19:07:53.548Z,100524.00
2018-08-20T19:10:33.025Z,100523.00
2018-08-20T19:13:05.292Z,100532.00
2018-08-20T19:15:55.914Z,100534.00
2018-08-20T19:18:36.516Z,100534.00
2018-08-20T19:21:14.651Z,100536.00
2018-08-20T19:23:45.810Z,100534.00
2018-08-20T19:26:24.856Z,100537.00
2018-08-20T19:28:57.494Z,100536.00
2018-08-20T19:31:32.490Z,100541.00
2018-08-20T19:34:06.570Z,100534.00
2018-08-20T19:36:38.636Z,100540.00
2018-08-20T19:39:11.306Z,100543.00
2018-08-20T19:41:44.503Z,100541.00
2018-08-20T19:44:14.914Z,100543.00
2018-08-20T19:46:45.438Z,100545.00
2018-08-20T19:49:16.161Z,100555.00
2018-08-20T19:51:47.238Z,100558.00
2018-08-20T19:54:17.942Z,100548.00
2018-08-20T19:56:47.956Z,100563.00
2018-08-20T19:59:27.538Z,100556.00
2018-08-20T20:01:57.829Z,100552.00
2018-08-20T20:04:28.082Z,100559.00
2018-08-20T20:06:58.968Z,100553.00
2018-08-20T20:09:29.165Z,100558.00
2018-08-20T20:11:59.367Z,100561.00
2018-08-20T20:14:34.569Z,100558.00
2018-08-20T20:17:04.833Z,100559.00
2018-08-20T20:19:35.571Z,100551.00
2018-08-20T20:22:08.897Z,100550.00
2018-08-20T20:24:39.247Z,100555.00
2018-08-20T20:27:10.861Z,100553.00
2018-08-20T20:29:41.673Z,100552.00
2018-08-20T20:32:14.488Z,100555.00
2018-08-20T20:34:45.834Z,100556.00
2018-08-20T20:37:16.066Z,100554.00
2018-08-20T20:39:54.382Z,100555.00
2018-08-20T20:42:24.501Z,100554.00
2018-08-20T20:44:58.867Z,100549.00
2018-08-20T20:47:29.841Z,100555.00
2018-08-20T20:50:00.109Z,100550.00
2018-08-20T20:52:30.413Z,100557.00
2018-08-20T20:55:00.718Z,100562.00
2018-08-20T20:57:31.149Z,100561.00
2018-08-20T21:00:01.275Z,100560.00
2018-08-20T21:02:31.630Z,100555.00
2018-08-20T21:05:06.232Z,100559.00
2018-08-20T21:07:36.957Z,100555.00
2018-08-20T21:10:08.840Z,100555.00
2018-08-20T21:12:38.834Z,100563.00
2018-08-20T21:15:10.553Z,100554.00
2018-08-20T21:17:40.646Z,100558.00
2018-08-20T21:20:11.278Z,100559.00
2018-08-20T21:22:42.446Z,100551.00
2018-08-20T21:25:12.943Z,100559.00
2018-08-20T21:27:44.425Z,100562.00
2018-08-20T21:30:15.158Z,100561.00
2018-08-20T21:32:45.355Z,100565.00
2018-08-20T21:35:16.418Z,100558.00
2018-08-20T21:37:47.132Z,100557.00
2018-08-20T21:40:21.576Z,100562.00
2018-08-20T21:42:51.705Z,100560.00
2018-08-20T21:45:22.635Z,100553.00
2018-08-20T21:47:54.299Z,100559.00
2018-08-20T21:50:25.488Z,100566.00
2018-08-20T21:52:55.600Z,100562.00
2018-08-20T21:55:25.889Z,100564.00
2018-08-20T21:57:57.737Z,100567.00
2018-08-20T22:00:30.332Z,100561.00
2018-08-20T22:03:01.235Z,100564.00
2018-08-20T22:05:33.169Z,100573.00
2018-08-20T22:08:04.087Z,100575.00
2018-08-20T22:10:34.334Z,100564.00
2018-08-20T22:13:04.539Z,100575.00
2018-08-20T22:15:35.043Z,100579.00
2018-08-20T22:18:05.290Z,100575.00
2018-08-20T22:20:35.789Z,100573.00
2018-08-20T22:23:24.948Z,100578.00
2018-08-20T22:25:39.608Z,100578.00
2018-08-20T22:28:10.491Z,100582.00
2018-08-20T22:30:43.701Z,100578.00
2018-08-20T22:33:15.192Z,100575.00
2018-08-20T22:35:45.780Z,100582.00
2018-08-20T22:38:16.142Z,100579.00
2018-08-20T22:40:48.695Z,100582.00
2018-08-20T22:43:19.967Z,100576.00
2018-08-20T22:45:50.617Z,100574.00
2018-08-20T22:48:21.073Z,100580.00
2018-08-20T22:51:17.768Z,100569.00
2018-08-20T22:53:57.400Z,100567.00
2018-08-20T22:56:30.338Z,100570.00
2018-08-20T22:59:07.798Z,100569.00
2018-08-20T23:01:38.395Z,100565.00
2018-08-20T23:04:08.938Z,100571.00
2018-08-20T23:06:40.960Z,100562.00
2018-08-20T23:09:32.346Z,100560.00
2018-08-20T23:12:03.060Z,100564.00
2018-08-20T23:14:35.431Z,100569.00
2018-08-20T23:17:05.411Z,100569.00
2018-08-20T23:19:37.095Z,100564.00
2018-08-20T23:22:08.194Z,100570.00
2018-08-20T23:24:44.053Z,100576.00
2018-08-20T23:27:14.364Z,100575.00
2018-08-20T23:29:45.291Z,100571.00
2018-08-20T23:32:15.861Z,100581.00
2018-08-20T23:34:47.053Z,100582.00
2018-08-20T23:37:17.087Z,100576.00
2018-08-20T23:39:47.207Z,100577.00
2018-08-20T23:42:18.104Z,100574.00
2018-08-20T23:44:50.508Z,100586.00
2018-08-20T23:47:21.671Z,100577.00
2018-08-20T23:49:52.286Z,100581.00
2018-08-20T23:52:22.974Z,100590.00
2018-08-20T23:54:53.852Z,100596.00
2018-08-20T23:57:24.385Z,100598.00
2018-08-20T23:59:54.641Z,100597.00
